Terminal Aerodrome Forecast
Issued by NWS Mt. Holly, NJ

Home | Current Version | Previous Version | Text Only | Print | Product List | Glossary On
Versions: 1 2 3 4 5 6 7 8 9 10 11 12 13 14 15 16
000
FTUS41 KPHI 272320
TAFACY
TAF
KACY 272320Z 2800/2824 06010KT 6SM BR VCSH OVC005
      TEMPO 2800/2804 2SM TSRA BR OVC004CB
     FM280400 07007KT 3SM -SHRA BR OVC003
     FM280900 06005KT 3SM -DZ BR VCSH OVC003
     FM281500 09006KT 6SM BR OVC005
     FM281800 13008KT P6SM BKN008
     FM282300 18006KT P6SM BKN012=

USA.gov is the U.S. government's official web portal to all federal, state and local government web resources and services.